Time;durP1;ratioP1;P1;durP2;ratioP2;P2;SDS_P1;SDS_P2;PMS_P1;PMS_P2;Temp;Humidity;BMP_temperature;BMP_pressure;BME280_temperature;BME280_humidity;BME280_pressure;Samples;Min_cycle;Max_cycle;Signal;HPM_P1;HPM_P2
2021/08/17 00:00:37;;;;;;;1.07;0.30;;;;;;;12.00;100.00;99963.66;5073011;28;20531;-71
2021/08/17 00:03:03;;;;;;;1.27;0.37;;;;;;;12.02;100.00;99945.78;5072781;28;20202;-72
2021/08/17 00:05:29;;;;;;;1.83;1.57;;;;;;;12.05;100.00;99955.25;5073233;28;20206;-72
2021/08/17 00:07:55;;;;;;;1.60;0.90;;;;;;;12.07;100.00;99944.78;5072995;28;20684;-72
2021/08/17 00:10:22;;;;;;;3.70;1.23;;;;;;;12.10;100.00;99936.69;5072839;28;20175;-72
2021/08/17 00:12:48;;;;;;;0.30;0.30;;;;;;;12.12;100.00;99941.81;5072653;28;20177;-72
2021/08/17 00:15:14;;;;;;;0.30;0.30;;;;;;;12.11;100.00;99935.53;5072779;28;20194;-72
2021/08/17 00:17:40;;;;;;;1.70;0.60;;;;;;;12.04;100.00;99929.00;5072164;28;20182;-72
2021/08/17 00:20:05;;;;;;;2.37;1.03;;;;;;;12.00;100.00;99933.53;5072758;28;20662;-72
2021/08/17 00:22:31;;;;;;;0.37;0.20;;;;;;;11.96;100.00;99927.13;5072374;28;20213;-72
2021/08/17 00:24:56;;;;;;;0.83;0.83;;;;;;;11.90;100.00;99946.50;5072688;28;20206;-72
2021/08/17 00:27:22;;;;;;;1.10;0.67;;;;;;;11.79;100.00;99931.59;5072648;28;20202;-72
2021/08/17 00:29:47;;;;;;;1.20;1.20;;;;;;;11.75;100.00;99919.69;5071243;28;20626;-72
2021/08/17 00:32:13;;;;;;;2.53;0.83;;;;;;;11.69;100.00;99931.94;5072269;28;20640;-72
2021/08/17 00:34:38;;;;;;;0.73;0.40;;;;;;;11.67;100.00;99923.25;5072182;28;20178;-72
2021/08/17 00:37:04;;;;;;;1.43;0.73;;;;;;;11.69;100.00;99937.41;5072602;28;20220;-72
2021/08/17 00:39:31;;;;;;;0.20;0.20;;;;;;;11.69;100.00;99929.19;5072342;28;20185;-72
2021/08/17 00:41:57;;;;;;;2.00;0.43;;;;;;;11.72;100.00;99922.28;5072160;28;20167;-72
2021/08/17 00:44:25;;;;;;;0.27;0.27;;;;;;;11.74;100.00;99922.75;5072220;28;20648;-72
2021/08/17 00:46:51;;;;;;;5.67;0.73;;;;;;;11.74;100.00;99923.56;5072156;28;20181;-72
2021/08/17 00:49:18;;;;;;;6.13;1.67;;;;;;;11.80;100.00;99935.94;5072057;28;20178;-72
2021/08/17 00:51:44;;;;;;;2.70;2.50;;;;;;;11.84;100.00;99938.78;5071937;28;20178;-72
2021/08/17 00:54:09;;;;;;;0.10;0.10;;;;;;;11.85;100.00;99923.97;5071906;28;20622;-72
2021/08/17 00:56:37;;;;;;;0.37;0.37;;;;;;;11.88;100.00;99943.28;5071658;28;20210;-72
2021/08/17 00:59:02;;;;;;;4.27;0.37;;;;;;;11.90;100.00;99938.28;5071904;28;20166;-73
2021/08/17 01:01:28;;;;;;;4.47;0.87;;;;;;;11.95;100.00;99925.53;5071626;28;20243;-72
2021/08/17 01:03:53;;;;;;;0.77;0.77;;;;;;;11.99;100.00;99923.72;5070557;28;20228;-72
2021/08/17 01:06:18;;;;;;;0.30;0.30;;;;;;;12.01;100.00;99926.94;5071771;28;20178;-72
2021/08/17 01:08:44;;;;;;;1.67;0.40;;;;;;;12.03;100.00;99921.94;5071699;28;20636;-72
2021/08/17 01:11:09;;;;;;;1.80;1.57;;;;;;;12.04;100.00;99916.13;5071681;28;20844;-72
2021/08/17 01:13:34;;;;;;;0.40;0.37;;;;;;;12.08;100.00;99925.25;5071557;28;20201;-72
2021/08/17 01:16:00;;;;;;;0.67;0.20;;;;;;;12.13;100.00;99913.31;5071492;28;20236;-72
2021/08/17 01:18:25;;;;;;;1.13;0.50;;;;;;;12.13;100.00;99927.78;5071772;28;20619;-72
2021/08/17 01:20:56;;;;;;;0.23;0.23;;;;;;;12.16;100.00;99929.88;5071523;28;20558;-72
2021/08/17 01:23:24;;;;;;;2.27;0.73;;;;;;;12.20;100.00;99933.56;5071632;28;20170;-72
2021/08/17 01:25:49;;;;;;;0.70;0.70;;;;;;;12.21;100.00;99937.09;5071451;28;20194;-72
2021/08/17 01:28:15;;;;;;;1.80;0.63;;;;;;;12.20;100.00;99947.25;5070533;28;20260;-72
2021/08/17 01:30:40;;;;;;;0.10;0.10;;;;;;;12.16;100.00;99943.59;5069870;28;20179;-73
2021/08/17 01:33:06;;;;;;;3.03;0.20;;;;;;;12.15;100.00;99944.72;5071149;28;20175;-72
2021/08/17 01:35:31;;;;;;;27.27;1.57;;;;;;;12.17;100.00;99938.91;5071175;28;20202;-72
2021/08/17 01:37:57;;;;;;;1.17;1.07;;;;;;;12.21;100.00;99948.03;5071048;28;20179;-72
2021/08/17 01:40:22;;;;;;;1.87;1.53;;;;;;;12.25;100.00;99954.44;5071236;28;20162;-71
2021/08/17 01:42:51;;;;;;;4.67;1.47;;;;;;;12.31;100.00;99953.13;5070585;28;20167;-72
2021/08/17 01:45:18;;;;;;;2.90;0.77;;;;;;;12.31;100.00;99955.88;5070629;28;20163;-72
2021/08/17 01:47:51;;;;;;;0.97;0.60;;;;;;;12.35;100.00;99959.53;5070463;28;20241;-72
2021/08/17 01:50:17;;;;;;;1.77;1.63;;;;;;;12.39;100.00;99974.16;5070567;28;20166;-72
2021/08/17 01:52:43;;;;;;;1.60;1.30;;;;;;;12.42;100.00;99958.97;5070048;28;20181;-72
2021/08/17 01:55:09;;;;;;;0.77;0.73;;;;;;;12.46;100.00;99963.47;5070269;28;20210;-72
2021/08/17 01:57:36;;;;;;;0.70;0.70;;;;;;;12.48;100.00;99968.63;5070341;28;20178;-72
2021/08/17 02:00:03;;;;;;;13.50;2.57;;;;;;;12.50;100.00;99967.13;5070574;28;20166;-72
2021/08/17 02:02:28;;;;;;;3.90;0.30;;;;;;;12.52;100.00;99951.16;5068812;28;20179;-72
2021/08/17 02:04:53;;;;;;;4.90;0.80;;;;;;;12.55;100.00;99955.16;5070338;28;20178;-72
2021/08/17 02:07:18;;;;;;;0.40;0.40;;;;;;;12.58;100.00;99954.47;5070143;28;20255;-72
2021/08/17 02:09:44;;;;;;;4.60;1.13;;;;;;;12.65;100.00;99973.94;5070234;28;20277;-72
2021/08/17 02:12:09;;;;;;;0.23;0.23;;;;;;;12.69;100.00;99968.56;5070035;28;20603;-72
2021/08/17 02:14:35;;;;;;;1.10;1.00;;;;;;;12.71;100.00;99964.34;5070168;28;20183;-72
2021/08/17 02:17:00;;;;;;;1.70;1.40;;;;;;;12.73;100.00;99961.28;5070057;28;20202;-72
2021/08/17 02:19:25;;;;;;;2.90;0.63;;;;;;;12.74;100.00;99963.69;5070253;28;20364;-72
2021/08/17 02:21:51;;;;;;;2.13;0.53;;;;;;;12.74;100.00;99971.13;5070029;28;20638;-72
2021/08/17 02:24:16;;;;;;;2.40;1.23;;;;;;;12.77;100.00;99981.41;5070069;28;20246;-72
2021/08/17 02:26:41;;;;;;;1.90;1.73;;;;;;;12.75;100.00;99970.78;5070113;28;20253;-72
2021/08/17 02:29:07;;;;;;;1.43;1.33;;;;;;;12.73;100.00;99967.59;5070276;28;20649;-72
2021/08/17 02:31:32;;;;;;;2.03;1.83;;;;;;;12.79;100.00;99981.88;5069802;28;20170;-72
2021/08/17 02:33:57;;;;;;;4.50;1.37;;;;;;;12.81;100.00;99974.09;5070057;28;20175;-72
2021/08/17 02:36:23;;;;;;;6.03;2.27;;;;;;;12.85;100.00;99971.47;5069948;28;20234;-72
2021/08/17 02:38:48;;;;;;;2.97;1.50;;;;;;;12.86;100.00;99975.81;5069783;28;20173;-72
2021/08/17 02:41:14;;;;;;;2.30;0.70;;;;;;;12.87;100.00;99989.19;5072102;28;20565;-72
2021/08/17 02:43:39;;;;;;;2.10;1.23;;;;;;;12.86;100.00;99993.06;5073943;28;20170;-72
2021/08/17 02:46:04;;;;;;;2.40;2.20;;;;;;;12.86;100.00;99992.28;5073987;28;20186;-72
2021/08/17 02:48:30;;;;;;;1.10;1.10;;;;;;;12.86;100.00;99989.53;5073796;28;20175;-72
2021/08/17 02:50:55;;;;;;;6.10;1.57;;;;;;;12.85;100.00;99996.97;5073896;28;20511;-72
2021/08/17 02:53:21;;;;;;;3.70;0.97;;;;;;;12.83;100.00;100010.19;5073363;28;20171;-72
2021/08/17 02:55:46;;;;;;;1.47;0.97;;;;;;;12.81;100.00;100015.22;5073653;28;20724;-72
2021/08/17 02:58:12;;;;;;;1.80;1.00;;;;;;;12.78;100.00;100027.66;5073720;28;20649;-72
2021/08/17 03:00:42;;;;;;;1.63;1.03;;;;;;;12.75;100.00;100008.34;5073613;28;20174;-72
2021/08/17 03:03:07;;;;;;;1.90;0.73;;;;;;;12.75;100.00;100011.09;5073426;28;20672;-72
2021/08/17 03:05:32;;;;;;;0.53;0.40;;;;;;;12.74;100.00;100007.56;5073528;28;20198;-72
2021/08/17 03:08:02;;;;;;;5.83;2.57;;;;;;;12.73;100.00;100010.59;5073339;28;20386;-72
2021/08/17 03:10:29;;;;;;;0.57;0.57;;;;;;;12.72;100.00;100017.22;5073466;28;20178;-72
2021/08/17 03:12:55;;;;;;;3.23;2.03;;;;;;;12.72;100.00;100014.50;5073116;28;20174;-71
2021/08/17 03:15:21;;;;;;;1.27;0.70;;;;;;;12.71;100.00;100018.38;5073261;28;20194;-72
2021/08/17 03:17:47;;;;;;;1.87;1.77;;;;;;;12.70;100.00;100025.00;5071992;28;20569;-72
2021/08/17 03:20:14;;;;;;;1.20;0.93;;;;;;;12.69;100.00;100020.66;5073242;28;20181;-72
2021/08/17 03:22:40;;;;;;;1.10;1.00;;;;;;;12.69;100.00;100012.44;5073023;28;20162;-72
2021/08/17 03:25:08;;;;;;;0.80;0.80;;;;;;;12.66;100.00;100015.84;5071412;28;20225;-73
2021/08/17 03:27:34;;;;;;;2.40;2.20;;;;;;;12.65;100.00;100008.75;5071422;28;20257;-72
2021/08/17 03:29:59;;;;;;;6.73;2.20;;;;;;;12.66;100.00;100015.84;5073589;28;20647;-72
2021/08/17 03:32:25;;;;;;;0.20;0.20;;;;;;;12.63;100.00;100022.00;5073363;28;20178;-72
2021/08/17 03:34:51;;;;;;;0.47;0.47;;;;;;;12.65;100.00;100030.69;5073558;28;20173;-72
2021/08/17 03:37:17;;;;;;;3.77;1.73;;;;;;;12.67;100.00;100039.38;5073563;28;20167;-73
2021/08/17 03:39:42;;;;;;;2.53;1.13;;;;;;;12.65;100.00;100041.66;5073474;28;20572;-72
2021/08/17 03:42:08;;;;;;;4.17;1.67;;;;;;;12.65;100.00;100049.88;5073296;28;20523;-72
2021/08/17 03:44:33;;;;;;;1.63;1.17;;;;;;;12.63;100.00;100049.41;5073700;28;20680;-72
2021/08/17 03:46:59;;;;;;;2.27;1.00;;;;;;;12.68;100.00;100046.47;5073271;28;20214;-73
2021/08/17 03:49:24;;;;;;;1.03;0.53;;;;;;;12.70;100.00;100049.66;5072020;28;20265;-72
2021/08/17 03:51:49;;;;;;;4.60;1.90;;;;;;;12.71;100.00;100049.31;5072175;28;20216;-74
2021/08/17 03:54:14;;;;;;;1.00;0.87;;;;;;;12.70;100.00;100052.41;5073144;28;20235;-72
2021/08/17 03:56:40;;;;;;;0.50;0.50;;;;;;;12.70;100.00;100049.66;5071866;28;20202;-72
2021/08/17 03:59:05;;;;;;;5.03;1.03;;;;;;;12.66;100.00;100054.22;5072989;28;20175;-73
2021/08/17 04:01:30;;;;;;;0.93;0.93;;;;;;;12.67;100.00;100055.81;5072941;28;20170;-72
2021/08/17 04:03:56;;;;;;;1.40;1.30;;;;;;;12.66;100.00;100056.97;5072989;28;20187;-73
2021/08/17 04:06:21;;;;;;;1.27;0.87;;;;;;;12.67;100.00;100061.31;5073424;28;20232;-73
2021/08/17 04:08:48;;;;;;;0.70;0.40;;;;;;;12.64;100.00;100068.25;5072915;28;20236;-72
2021/08/17 04:11:14;;;;;;;0.47;0.47;;;;;;;12.65;100.00;100066.31;5072902;28;20622;-72
2021/08/17 04:13:40;;;;;;;4.03;1.50;;;;;;;12.64;100.00;100057.28;5072768;28;20205;-72
2021/08/17 04:16:06;;;;;;;3.93;2.10;;;;;;;12.64;100.00;100064.72;5072705;28;20198;-72
2021/08/17 04:18:31;;;;;;;1.33;1.33;;;;;;;12.62;100.00;100059.56;5071351;28;20231;-74
2021/08/17 04:20:57;;;;;;;2.10;0.20;;;;;;;12.65;100.00;100071.81;5072659;28;20202;-73
2021/08/17 04:23:22;;;;;;;1.67;0.93;;;;;;;12.67;100.00;100072.25;5072909;28;20175;-73
2021/08/17 04:25:47;;;;;;;1.97;1.77;;;;;;;12.71;100.00;100073.19;5072675;28;20571;-72
2021/08/17 04:28:13;;;;;;;1.27;0.40;;;;;;;12.74;100.00;100083.50;5072477;28;20181;-73
2021/08/17 04:30:38;;;;;;;0.57;0.57;;;;;;;12.75;100.00;100093.34;5072535;28;20175;-72
2021/08/17 04:33:04;;;;;;;1.53;0.67;;;;;;;12.71;100.00;100084.97;5072372;28;20175;-73
2021/08/17 04:35:29;;;;;;;1.53;1.30;;;;;;;12.71;100.00;100084.16;5072230;28;20646;-72
2021/08/17 04:37:54;;;;;;;1.07;1.07;;;;;;;12.72;100.00;100085.75;5072624;28;20573;-73
2021/08/17 04:40:20;;;;;;;40.23;2.87;;;;;;;12.70;100.00;100099.00;5072608;28;20762;-73
2021/08/17 04:42:45;;;;;;;3.13;1.63;;;;;;;12.71;100.00;100100.59;5072065;28;20192;-73
2021/08/17 04:45:11;;;;;;;3.40;0.57;;;;;;;12.69;100.00;100111.91;5072338;28;20171;-72
2021/08/17 04:47:47;;;;;;;1.13;0.77;;;;;;;12.69;100.00;100106.44;5072209;28;20256;-72
2021/08/17 04:50:12;;;;;;;1.07;0.93;;;;;;;12.69;100.00;100120.13;5072150;28;20177;-72
2021/08/17 04:52:39;;;;;;;3.80;1.17;;;;;;;12.70;100.00;100113.50;5071996;28;20202;-73
2021/08/17 04:55:04;;;;;;;1.33;1.23;;;;;;;12.69;100.00;100117.38;5071966;28;20170;-73
2021/08/17 04:57:30;;;;;;;6.00;0.47;;;;;;;12.73;100.00;100112.03;5071929;28;20174;-72
2021/08/17 04:59:55;;;;;;;1.90;1.00;;;;;;;12.74;100.00;100119.16;5070565;28;20213;-74
2021/08/17 05:02:20;;;;;;;1.77;1.00;;;;;;;12.76;100.00;100112.19;5071531;28;20182;-74
2021/08/17 05:04:46;;;;;;;4.97;0.87;;;;;;;12.78;100.00;100122.81;5071608;28;20186;-74
2021/08/17 05:07:11;;;;;;;7.00;0.87;;;;;;;12.80;100.00;100117.81;5071860;28;20618;-74
2021/08/17 05:09:36;;;;;;;0.90;0.90;;;;;;;12.79;100.00;100119.75;5071789;28;20504;-75
2021/08/17 05:12:02;;;;;;;1.90;1.13;;;;;;;12.80;100.00;100113.13;5071531;28;20178;-75
2021/08/17 05:14:28;;;;;;;1.70;0.87;;;;;;;12.78;100.00;100111.84;5071662;28;20171;-74
2021/08/17 05:16:53;;;;;;;0.60;0.60;;;;;;;12.79;100.00;100122.47;5071717;28;20229;-75
2021/08/17 05:19:18;;;;;;;1.27;1.07;;;;;;;12.81;100.00;100119.41;5073247;28;20174;-75
2021/08/17 05:21:44;;;;;;;2.47;1.70;;;;;;;12.82;100.00;100123.75;5073054;28;20181;-75
2021/08/17 05:24:10;;;;;;;0.63;0.50;;;;;;;12.82;100.00;100124.56;5071750;28;20179;-75
2021/08/17 05:26:35;;;;;;;2.77;1.47;;;;;;;12.85;100.00;100116.78;5071315;28;20213;-74
2021/08/17 05:29:01;;;;;;;8.03;0.83;;;;;;;12.88;100.00;100127.09;5071295;28;20267;-74
2021/08/17 05:31:26;;;;;;;0.20;0.20;;;;;;;12.86;100.00;100126.63;5071381;28;20221;-74
2021/08/17 05:33:51;;;;;;;1.77;1.17;;;;;;;12.87;100.00;100126.28;5069765;28;20202;-75
2021/08/17 05:36:16;;;;;;;0.80;0.80;;;;;;;12.88;100.00;100135.34;5071218;28;20208;-75
2021/08/17 05:38:42;;;;;;;0.60;0.60;;;;;;;12.90;100.00;100138.53;5071196;28;20198;-75
2021/08/17 05:41:07;;;;;;;1.27;0.97;;;;;;;12.92;100.00;100134.31;5069959;28;20178;-76
2021/08/17 05:43:33;;;;;;;3.60;0.70;;;;;;;12.95;100.00;100138.34;5069762;28;20175;-75
2021/08/17 05:46:02;;;;;;;0.40;0.40;;;;;;;12.99;100.00;100133.78;5071105;28;20170;-75
2021/08/17 05:48:28;;;;;;;4.23;0.67;;;;;;;13.01;100.00;100148.75;5071017;28;20170;-75
2021/08/17 05:50:53;;;;;;;2.33;0.70;;;;;;;13.04;100.00;100159.06;5071037;28;20661;-75
2021/08/17 05:53:18;;;;;;;0.60;0.60;;;;;;;13.05;100.00;100166.16;5070795;28;20550;-75
2021/08/17 05:55:44;;;;;;;3.20;1.20;;;;;;;13.04;100.00;100163.75;5070862;28;20681;-75
2021/08/17 05:58:09;;;;;;;13.33;2.27;;;;;;;13.02;100.00;100164.09;5070946;28;20676;-75
2021/08/17 06:00:34;;;;;;;0.50;0.50;;;;;;;13.04;100.00;100164.56;5071035;28;20638;-75
2021/08/17 06:03:01;;;;;;;0.10;0.10;;;;;;;13.06;100.00;100159.53;5070612;28;20255;-75
2021/08/17 06:05:27;;;;;;;0.40;0.30;;;;;;;13.05;100.00;100173.59;5070875;28;20187;-75
2021/08/17 06:07:52;;;;;;;1.80;1.07;;;;;;;13.01;100.00;100181.66;5069406;28;20225;-74
2021/08/17 06:10:18;;;;;;;20.27;2.93;;;;;;;13.05;100.00;100173.59;5071056;28;20175;-74
2021/08/17 06:12:44;;;;;;;2.27;0.60;;;;;;;13.10;100.00;100182.41;5069393;28;20517;-75
2021/08/17 06:15:11;;;;;;;2.07;1.40;;;;;;;13.14;100.00;100182.53;5070105;28;20205;-72
2021/08/17 06:17:36;;;;;;;1.27;0.50;;;;;;;13.17;100.00;100184.63;5068009;28;20273;-75
2021/08/17 06:20:06;;;;;;;1.07;0.63;;;;;;;13.26;100.00;100179.88;5070258;28;20257;-75
2021/08/17 06:22:32;;;;;;;1.40;0.80;;;;;;;13.35;100.00;100185.31;5070118;28;20175;-73
2021/08/17 06:24:57;;;;;;;1.23;1.00;;;;;;;13.44;99.88;100186.03;5070093;28;20228;-71
2021/08/17 06:27:23;;;;;;;2.37;1.07;;;;;;;13.52;99.75;100185.16;5070234;28;20633;-76
2021/08/17 06:29:49;;;;;;;2.33;2.17;;;;;;;13.52;99.07;100185.16;5070223;28;20705;-77
2021/08/17 06:32:14;;;;;;;4.70;1.20;;;;;;;13.58;98.61;100194.78;5070029;28;20173;-76
2021/08/17 06:34:40;;;;;;;0.63;0.40;;;;;;;13.65;98.20;100195.03;5077121;28;20178;-76
2021/08/17 06:37:05;;;;;;;0.20;0.20;;;;;;;13.63;98.33;100191.03;5070067;28;20495;-76
2021/08/17 06:39:30;;;;;;;1.23;1.13;;;;;;;13.61;99.28;100190.56;5070112;28;20638;-78
2021/08/17 06:41:56;;;;;;;2.30;0.70;;;;;;;13.55;98.34;100189.97;5069992;28;20216;-77
2021/08/17 06:44:21;;;;;;;1.70;1.00;;;;;;;13.54;98.96;100196.59;5069071;28;20224;-74
2021/08/17 06:46:47;;;;;;;0.93;0.73;;;;;;;13.43;97.87;100176.19;5067952;28;20182;-80
2021/08/17 06:49:12;;;;;;;2.47;1.10;;;;;;;13.34;99.58;100183.72;5069835;28;20174;-78
2021/08/17 06:51:38;;;;;;;0.43;0.43;;;;;;;13.39;100.00;100184.28;5069654;28;20665;-77
2021/08/17 06:54:04;;;;;;;1.17;0.80;;;;;;;13.42;99.66;100188.31;5069777;28;20171;-80
2021/08/17 06:56:29;;;;;;;3.93;1.60;;;;;;;13.40;100.00;100193.34;5069718;28;20263;-73
2021/08/17 06:58:54;;;;;;;0.13;0.13;;;;;;;13.40;100.00;100188.66;5069849;28;20630;-74
2021/08/17 07:01:20;;;;;;;1.07;0.40;;;;;;;13.51;99.41;100191.78;5068415;28;20206;-72
2021/08/17 07:03:45;;;;;;;1.00;1.00;;;;;;;13.65;98.82;100194.25;5069814;28;20190;-72
2021/08/17 07:06:11;;;;;;;6.23;1.43;;;;;;;13.78;95.70;100193.13;5069786;28;20170;-72
2021/08/17 07:08:39;;;;;;;0.37;0.33;;;;;;;13.91;94.28;100188.50;5069819;28;20202;-72
2021/08/17 07:11:04;;;;;;;0.90;0.40;;;;;;;14.00;96.18;100195.47;5069804;28;20174;-72
2021/08/17 07:13:29;;;;;;;1.73;0.73;;;;;;;14.05;93.66;100190.91;5070095;28;20175;-71
2021/08/17 07:15:55;;;;;;;0.77;0.40;;;;;;;14.10;92.32;100193.44;5070032;28;20209;-73
2021/08/17 07:18:20;;;;;;;1.40;1.33;;;;;;;14.14;91.53;100208.09;5070273;28;20207;-74
2021/08/17 07:20:46;;;;;;;3.20;0.67;;;;;;;14.22;91.42;100193.47;5070144;28;20714;-72
2021/08/17 07:23:11;;;;;;;0.30;0.17;;;;;;;14.25;91.05;100198.25;5069958;28;20658;-73
2021/08/17 07:25:37;;;;;;;1.60;0.63;;;;;;;14.26;91.94;100202.63;5070084;28;20697;-72
2021/08/17 07:28:03;;;;;;;2.50;0.97;;;;;;;14.29;89.94;100208.22;5073045;28;20233;-72
2021/08/17 07:30:29;;;;;;;0.80;0.30;;;;;;;14.41;90.80;100217.63;5073696;28;20178;-72
2021/08/17 07:32:54;;;;;;;2.43;0.93;;;;;;;14.55;90.30;100215.38;5073460;28;20198;-73
2021/08/17 07:35:20;;;;;;;2.70;0.50;;;;;;;14.65;89.61;100209.44;5073537;28;20198;-74
2021/08/17 07:37:47;;;;;;;1.37;1.23;;;;;;;14.63;87.97;100211.72;5073386;28;20564;-74
2021/08/17 07:40:14;;;;;;;1.00;0.77;;;;;;;14.50;88.46;100208.16;5073520;28;20199;-73
2021/08/17 07:42:40;;;;;;;0.97;0.50;;;;;;;14.47;88.01;100203.38;5073290;28;20179;-73
2021/08/17 07:45:09;;;;;;;5.03;1.50;;;;;;;14.47;88.36;100213.56;5073439;28;20491;-74
2021/08/17 07:47:36;;;;;;;9.93;1.33;;;;;;;14.49;88.04;100222.25;5073379;28;20688;-73
2021/08/17 07:50:02;;;;;;;1.17;0.63;;;;;;;14.48;87.72;100213.22;5073383;28;20530;-73
2021/08/17 07:52:29;;;;;;;0.87;0.60;;;;;;;14.56;87.09;100222.47;5073103;28;20242;-73
2021/08/17 07:54:54;;;;;;;1.47;0.53;;;;;;;14.66;86.73;100233.03;5073307;28;20259;-73
2021/08/17 07:57:19;;;;;;;18.07;1.87;;;;;;;14.82;86.05;100247.69;5073201;28;20666;-73
2021/08/17 07:59:45;;;;;;;3.77;0.60;;;;;;;14.82;85.08;100247.69;5073000;28;20261;-74
2021/08/17 08:02:10;;;;;;;1.63;0.70;;;;;;;14.86;85.76;100242.28;5073167;28;20167;-74
2021/08/17 08:04:35;;;;;;;0.87;0.50;;;;;;;14.94;84.94;100227.63;5072996;28;20186;-73
2021/08/17 08:07:01;;;;;;;2.37;1.43;;;;;;;14.94;86.13;100235.88;5072961;28;20177;-74
2021/08/17 08:09:26;;;;;;;0.40;0.30;;;;;;;14.98;87.76;100233.22;5073011;28;20243;-74
2021/08/17 08:11:51;;;;;;;14.00;1.90;;;;;;;14.91;84.45;100213.75;5071905;28;20527;-73
2021/08/17 08:14:17;;;;;;;0.20;0.20;;;;;;;15.07;86.61;100209.94;5071036;28;20600;-74
2021/08/17 08:16:42;;;;;;;3.03;1.23;;;;;;;15.20;85.72;100212.69;5072623;28;20205;-74
2021/08/17 08:19:08;;;;;;;1.40;0.53;;;;;;;15.28;84.21;100209.78;5072694;28;20171;-73
2021/08/17 08:21:33;;;;;;;1.30;0.30;;;;;;;15.23;83.84;100226.53;5072557;28;20174;-74
2021/08/17 08:24:00;;;;;;;2.00;0.97;;;;;;;15.10;83.99;100213.94;5072808;28;20179;-73
2021/08/17 08:26:25;;;;;;;0.90;0.90;;;;;;;14.94;84.98;100213.88;5072387;28;20186;-73
2021/08/17 08:28:50;;;;;;;2.43;0.70;;;;;;;14.87;83.83;100214.44;5072027;28;20224;-74
2021/08/17 08:31:16;;;;;;;0.40;0.40;;;;;;;15.04;84.35;100232.63;5070625;28;20268;-73
2021/08/17 08:33:41;;;;;;;0.43;0.43;;;;;;;15.13;83.01;100221.50;5072096;28;20182;-73
2021/08/17 08:36:09;;;;;;;1.10;0.83;;;;;;;15.14;83.13;100228.63;5072129;28;20199;-72
2021/08/17 08:38:34;;;;;;;0.50;0.50;;;;;;;15.15;82.85;100221.97;5072114;28;20170;-73
2021/08/17 08:41:00;;;;;;;11.10;0.87;;;;;;;15.23;82.53;100234.00;5072398;28;20667;-73
2021/08/17 08:43:25;;;;;;;8.53;1.77;;;;;;;15.26;81.82;100242.34;5072050;28;20693;-73
2021/08/17 08:45:51;;;;;;;2.07;1.07;;;;;;;15.41;82.21;100247.13;5072099;28;20178;-73
2021/08/17 08:48:19;;;;;;;1.20;0.93;;;;;;;15.40;80.89;100250.22;5068498;28;20193;-73
2021/08/17 08:50:46;;;;;;;0.70;0.70;;;;;;;15.43;82.22;100233.00;5064776;28;20175;-73
2021/08/17 08:53:13;;;;;;;6.13;0.53;;;;;;;15.46;81.23;100232.31;5066033;28;20256;-73
2021/08/17 08:55:39;;;;;;;0.60;0.60;;;;;;;15.47;82.94;100245.72;5071983;28;20305;-73
2021/08/17 08:58:05;;;;;;;0.70;0.70;;;;;;;15.46;80.18;100230.34;5071763;28;20634;-73
2021/08/17 09:00:31;;;;;;;0.40;0.27;;;;;;;15.44;80.60;100235.41;5071307;28;20174;-74
2021/08/17 09:02:57;;;;;;;0.10;0.10;;;;;;;15.41;79.65;100227.84;5071186;28;20187;-72
2021/08/17 09:05:23;;;;;;;1.03;1.03;;;;;;;15.43;81.97;100239.31;5071570;28;20220;-73
2021/08/17 09:07:53;;;;;;;2.13;0.70;;;;;;;15.61;81.92;100230.78;5072266;28;20179;-75
2021/08/17 09:10:19;;;;;;;2.10;1.07;;;;;;;15.80;83.16;100228.19;5071679;28;20659;-72
2021/08/17 09:12:53;;;;;;;0.57;0.47;;;;;;;15.93;80.61;100224.22;5071170;28;20626;-73
2021/08/17 09:15:33;;;;;;;5.00;1.93;;;;;;;16.15;80.32;100228.34;5071557;28;20646;-73
2021/08/17 09:18:12;;;;;;;0.77;0.50;;;;;;;16.25;76.89;100241.59;5071633;28;20263;-73
2021/08/17 09:20:40;;;;;;;2.90;0.73;;;;;;;16.30;79.23;100235.81;5071570;28;20216;-73
2021/08/17 09:23:28;;;;;;;3.43;1.70;;;;;;;16.26;80.01;100225.88;5071646;28;20638;-73
2021/08/17 09:25:56;;;;;;;1.57;1.20;;;;;;;16.23;77.92;100224.63;5071494;28;20227;-73
2021/08/17 09:28:24;;;;;;;1.70;1.53;;;;;;;16.05;79.40;100226.09;5071345;28;20248;-72
2021/08/17 09:30:49;;;;;;;1.67;1.00;;;;;;;16.01;80.57;100223.25;5071109;28;20170;-73
2021/08/17 09:33:15;;;;;;;1.07;0.87;;;;;;;15.94;80.21;100219.53;5071130;28;20186;-75
2021/08/17 09:35:40;;;;;;;1.57;0.97;;;;;;;15.99;80.21;100222.81;5071058;28;20698;-74
2021/08/17 09:38:09;;;;;;;12.73;1.20;;;;;;;15.99;79.51;100233.84;5071265;28;20182;-73
2021/08/17 09:40:35;;;;;;;3.23;1.43;;;;;;;16.08;80.52;100221.84;5071305;28;20177;-73
2021/08/17 09:43:18;;;;;;;1.73;1.07;;;;;;;16.08;79.38;100227.38;5070585;28;20194;-73
2021/08/17 09:45:44;;;;;;;4.83;1.40;;;;;;;16.13;80.79;100236.16;5070603;28;20186;-73
2021/08/17 09:48:12;;;;;;;1.60;1.00;;;;;;;16.22;79.99;100225.78;5070770;28;20391;-73
2021/08/17 09:50:38;;;;;;;0.20;0.20;;;;;;;16.21;80.02;100218.66;5070039;28;20236;-73
2021/08/17 09:53:14;;;;;;;2.47;1.07;;;;;;;16.18;78.82;100199.25;5070742;28;20162;-73
2021/08/17 09:55:49;;;;;;;0.77;0.70;;;;;;;16.22;81.08;100216.72;5070554;28;20200;-73
2021/08/17 09:58:25;;;;;;;1.13;1.00;;;;;;;16.24;78.86;100217.16;5070516;28;20446;-73
2021/08/17 10:00:54;;;;;;;3.03;1.50;;;;;;;16.30;79.07;100221.25;5070641;28;20634;-73
2021/08/17 10:03:21;;;;;;;1.50;0.90;;;;;;;16.40;79.32;100214.41;5070158;28;20182;-73
2021/08/17 10:05:47;;;;;;;3.07;1.93;;;;;;;16.37;79.53;100215.91;5070566;28;20641;-73
2021/08/17 10:08:16;;;;;;;5.07;1.60;;;;;;;16.40;79.37;100219.91;5070553;28;20171;-73
2021/08/17 10:10:43;;;;;;;2.80;2.33;;;;;;;16.42;79.64;100221.16;5070494;28;20200;-71
2021/08/17 10:13:14;;;;;;;5.33;1.10;;;;;;;16.43;78.30;100225.50;5070267;28;20362;-73
2021/08/17 10:15:42;;;;;;;1.60;1.50;;;;;;;16.46;78.42;100222.03;5070391;28;20194;-73
2021/08/17 10:18:09;;;;;;;1.73;1.07;;;;;;;16.45;77.91;100203.09;5069017;28;20225;-73
2021/08/17 10:20:38;;;;;;;2.60;1.57;;;;;;;16.31;76.65;100223.63;5070335;28;20213;-73
2021/08/17 10:23:06;;;;;;;6.37;1.70;;;;;;;16.32;76.20;100218.91;5070154;28;20216;-73
2021/08/17 10:25:45;;;;;;;1.07;1.00;;;;;;;16.40;77.45;100225.44;5070875;28;20569;-73
2021/08/17 10:28:29;;;;;;;1.20;0.90;;;;;;;16.47;76.37;100222.84;5070547;28;20731;-73
2021/08/17 10:30:55;;;;;;;3.03;2.10;;;;;;;16.51;77.89;100227.31;5070256;28;20185;-73
2021/08/17 10:33:36;;;;;;;2.10;0.97;;;;;;;16.61;75.66;100223.19;5070002;28;20206;-73
2021/08/17 10:36:01;;;;;;;2.20;1.47;;;;;;;16.82;75.58;100225.69;5070010;28;20570;-74
2021/08/17 10:38:29;;;;;;;1.53;1.40;;;;;;;17.11;73.58;100232.66;5070301;28;20175;-73
2021/08/17 10:40:55;;;;;;;2.13;1.50;;;;;;;17.32;72.37;100230.34;5070221;28;20465;-73
2021/08/17 10:43:45;;;;;;;1.20;1.07;;;;;;;17.42;71.22;100232.56;5069882;28;20198;-73
2021/08/17 10:46:13;;;;;;;0.73;0.63;;;;;;;17.47;73.60;100220.41;5069942;28;20178;-73
2021/08/17 10:48:50;;;;;;;1.90;0.90;;;;;;;17.33;71.28;100243.00;5070023;28;20175;-73
2021/08/17 10:51:19;;;;;;;2.97;1.80;;;;;;;17.38;72.94;100234.44;5069938;28;20182;-73
2021/08/17 10:54:04;;;;;;;0.93;0.80;;;;;;;17.53;72.00;100232.78;5070035;28;20175;-73
2021/08/17 10:56:38;;;;;;;3.77;2.10;;;;;;;17.67;70.82;100235.84;5069656;28;20224;-74
2021/08/17 10:59:05;;;;;;;0.83;0.83;;;;;;;17.54;67.55;100224.13;5069991;28;20245;-73
2021/08/17 11:01:30;;;;;;;2.33;1.80;;;;;;;17.36;68.99;100234.03;5071926;28;20202;-73
2021/08/17 11:04:17;;;;;;;3.77;2.83;;;;;;;17.38;70.54;100231.69;5072615;28;20238;-73
2021/08/17 11:06:53;;;;;;;1.20;0.93;;;;;;;17.09;69.52;100230.28;5073689;28;20178;-73
2021/08/17 11:09:30;;;;;;;3.40;2.40;;;;;;;17.09;72.28;100223.94;5074103;28;20274;-73
2021/08/17 11:12:00;;;;;;;1.37;1.27;;;;;;;17.33;70.16;100220.09;5073505;28;20194;-73
2021/08/17 11:14:27;;;;;;;1.73;1.27;;;;;;;17.61;70.20;100226.22;5074013;28;20174;-73
2021/08/17 11:16:58;;;;;;;3.23;2.20;;;;;;;17.91;68.78;100228.41;5072076;28;20624;-73
2021/08/17 11:19:25;;;;;;;7.80;2.53;;;;;;;17.94;67.82;100236.78;5073439;28;20634;-73